createdAt,value
2022-10-05T00:01:01.295Z,8.55
2022-10-05T00:06:11.327Z,8.55
2022-10-05T00:11:15.262Z,8.55
2022-10-05T00:16:20.799Z,8.54
2022-10-05T00:21:27.032Z,8.54
2022-10-05T00:26:33.271Z,8.54
2022-10-05T00:31:36.626Z,8.52
2022-10-05T00:36:40.460Z,8.50
2022-10-05T00:42:18.587Z,8.49
2022-10-05T00:47:30.104Z,8.49
2022-10-05T00:52:50.399Z,8.49
2022-10-05T00:58:11.324Z,8.49
2022-10-05T01:03:17.776Z,8.50
2022-10-05T01:08:30.347Z,8.50
2022-10-05T01:13:49.634Z,8.54
2022-10-05T01:18:52.432Z,8.56
2022-10-05T01:24:26.271Z,8.61
2022-10-05T01:29:44.013Z,8.64
2022-10-05T01:35:06.984Z,8.68
2022-10-05T01:40:31.503Z,8.72
2022-10-05T01:45:53.275Z,8.75
2022-10-05T01:51:30.971Z,8.76
2022-10-05T01:56:44.179Z,8.80
2022-10-05T02:02:11.445Z,8.80
2022-10-05T02:07:28.983Z,8.82
2022-10-05T02:12:37.676Z,8.84
2022-10-05T02:18:06.999Z,8.84
2022-10-05T02:23:14.845Z,8.84
2022-10-05T02:28:28.346Z,8.83
2022-10-05T02:33:33.176Z,8.82
2022-10-05T02:38:48.207Z,8.82
2022-10-05T02:44:02.066Z,8.81
2022-10-05T02:49:13.880Z,8.80
2022-10-05T02:54:40.279Z,8.79
2022-10-05T03:00:09.464Z,8.80
2022-10-05T03:05:58.954Z,8.80
2022-10-05T03:11:34.128Z,8.82
2022-10-05T03:16:50.321Z,8.84
2022-10-05T03:21:55.898Z,8.87
2022-10-05T03:27:04.738Z,8.89
2022-10-05T03:32:30.069Z,8.92
2022-10-05T03:37:48.106Z,8.94
2022-10-05T03:43:26.052Z,8.95
2022-10-05T03:48:50.154Z,8.97
2022-10-05T03:54:05.225Z,8.98
2022-10-05T03:59:19.104Z,8.99
2022-10-05T04:04:48.547Z,9.00
2022-10-05T04:09:54.809Z,9.02
2022-10-05T04:15:02.532Z,9.05
2022-10-05T04:20:29.376Z,9.06
2022-10-05T04:25:46.006Z,9.08
2022-10-05T04:30:52.399Z,9.09
2022-10-05T04:36:01.404Z,9.10
2022-10-05T04:41:16.549Z,9.13
2022-10-05T04:47:11.113Z,9.16
2022-10-05T04:52:13.867Z,9.17
2022-10-05T04:57:23.850Z,9.20
2022-10-05T05:02:45.587Z,9.23
2022-10-05T05:08:11.011Z,9.29
2022-10-05T05:13:38.901Z,9.34
2022-10-05T05:18:56.959Z,9.38
2022-10-05T05:24:27.410Z,9.44
2022-10-05T05:30:08.715Z,9.50
2022-10-05T05:35:32.201Z,9.60
2022-10-05T05:40:42.374Z,9.68
2022-10-05T05:45:59.210Z,9.78
2022-10-05T05:51:09.344Z,9.88
2022-10-05T05:56:24.380Z,9.99
2022-10-05T06:01:35.001Z,10.12
2022-10-05T06:06:42.644Z,10.26
2022-10-05T06:11:53.457Z,10.41
2022-10-05T06:17:29.233Z,10.58
2022-10-05T06:22:43.709Z,10.75
2022-10-05T06:28:13.619Z,10.89
2022-10-05T06:33:56.586Z,10.99
2022-10-05T06:39:14.751Z,11.02
2022-10-05T06:44:39.979Z,11.04
2022-10-05T06:49:50.356Z,11.11
2022-10-05T06:55:14.162Z,11.22
2022-10-05T07:00:23.474Z,11.43
2022-10-05T07:05:44.945Z,11.80
2022-10-05T07:11:15.809Z,12.66
2022-10-05T07:16:30.571Z,13.32
2022-10-05T07:21:50.165Z,13.52
2022-10-05T07:27:18.377Z,13.54
2022-10-05T07:32:47.804Z,13.55
2022-10-05T07:37:57.185Z,13.48
2022-10-05T07:43:14.481Z,13.41
2022-10-05T07:48:19.789Z,13.52
2022-10-05T07:53:40.278Z,13.83
2022-10-05T07:58:57.108Z,14.02
2022-10-05T08:04:27.772Z,14.21
2022-10-05T08:09:55.835Z,14.30
2022-10-05T08:15:23.720Z,14.38
2022-10-05T08:20:33.317Z,14.33
2022-10-05T08:25:59.459Z,14.29
2022-10-05T08:31:21.695Z,14.26
2022-10-05T08:36:44.059Z,14.39
2022-10-05T08:42:11.247Z,14.70
2022-10-05T08:47:48.256Z,14.93
2022-10-05T08:53:36.520Z,14.74
2022-10-05T08:58:49.766Z,14.42
2022-10-05T09:04:25.645Z,14.22
2022-10-05T09:10:03.159Z,14.04
2022-10-05T09:15:26.286Z,13.93
2022-10-05T09:20:37.029Z,13.93
2022-10-05T09:25:59.795Z,13.94
2022-10-05T09:31:37.722Z,13.93
2022-10-05T09:36:46.565Z,14.02
2022-10-05T09:41:52.145Z,14.14
2022-10-05T09:47:12.544Z,14.30
2022-10-05T09:52:19.182Z,14.41
2022-10-05T09:57:53.359Z,14.56
2022-10-05T10:03:02.565Z,14.70
2022-10-05T10:08:39.732Z,14.88
2022-10-05T10:14:04.654Z,15.11
2022-10-05T10:19:37.971Z,15.43
2022-10-05T10:24:43.860Z,15.75
2022-10-05T10:30:11.122Z,15.97
2022-10-05T10:35:36.774Z,16.15
2022-10-05T10:40:57.170Z,16.36
2022-10-05T10:45:59.982Z,16.53
2022-10-05T10:51:12.496Z,16.61
2022-10-05T10:56:18.249Z,16.69
2022-10-05T11:01:30.324Z,16.69
2022-10-05T11:06:48.121Z,16.66
2022-10-05T11:12:22.122Z,16.72
2022-10-05T11:17:33.626Z,16.71
2022-10-05T11:22:46.783Z,16.67
2022-10-05T11:28:09.715Z,16.62
2022-10-05T11:33:32.273Z,16.57
2022-10-05T11:38:46.433Z,16.61
2022-10-05T11:43:52.310Z,16.63
2022-10-05T11:49:36.559Z,16.72
2022-10-05T11:55:10.875Z,16.88
2022-10-05T12:00:23.965Z,17.08
2022-10-05T12:05:48.578Z,17.11
2022-10-05T12:11:10.222Z,17.03
2022-10-05T12:16:27.013Z,16.87
2022-10-05T12:21:52.586Z,16.71
2022-10-05T12:27:13.922Z,16.60
2022-10-05T12:32:34.929Z,16.54
2022-10-05T12:37:53.418Z,16.52
2022-10-05T12:43:02.062Z,16.58
2022-10-05T12:48:23.608Z,16.76
2022-10-05T12:54:05.415Z,16.86
2022-10-05T12:59:19.371Z,16.85
2022-10-05T13:04:31.151Z,16.77
2022-10-05T13:09:48.844Z,16.71
2022-10-05T13:15:20.932Z,16.68
2022-10-05T13:20:39.190Z,16.60
2022-10-05T13:25:53.746Z,16.54
2022-10-05T13:31:20.139Z,16.44
2022-10-05T13:36:31.437Z,16.37
2022-10-05T13:42:19.604Z,16.30
2022-10-05T13:47:40.840Z,16.25
2022-10-05T13:52:58.578Z,16.18
2022-10-05T13:58:20.022Z,16.08
2022-10-05T14:03:38.179Z,15.96
2022-10-05T14:08:54.295Z,15.89
2022-10-05T14:14:10.408Z,15.84
2022-10-05T14:19:22.131Z,15.73
2022-10-05T14:24:50.471Z,15.59
2022-10-05T14:30:08.403Z,15.41
2022-10-05T14:35:13.027Z,15.24
2022-10-05T14:40:24.413Z,15.13
2022-10-05T14:45:33.539Z,15.05
2022-10-05T14:50:57.678Z,14.99
2022-10-05T14:56:29.759Z,14.90
2022-10-05T15:01:36.106Z,14.76
2022-10-05T15:07:04.328Z,14.61
2022-10-05T15:12:07.674Z,14.44
2022-10-05T15:17:31.227Z,14.30
2022-10-05T15:22:40.808Z,14.13
2022-10-05T15:27:59.624Z,14.00
2022-10-05T15:33:25.533Z,13.88
2022-10-05T15:39:00.459Z,13.72
2022-10-05T15:44:28.576Z,13.55
2022-10-05T15:49:43.574Z,13.39
2022-10-05T15:55:14.628Z,13.20
2022-10-05T16:00:20.054Z,13.01
2022-10-05T16:05:56.892Z,12.81
2022-10-05T16:11:01.138Z,12.58
2022-10-05T16:16:16.548Z,12.38
2022-10-05T16:21:22.500Z,12.20
2022-10-05T16:26:51.110Z,12.06
2022-10-05T16:32:16.437Z,11.93
2022-10-05T16:37:32.243Z,11.80
2022-10-05T16:42:42.199Z,11.70
2022-10-05T16:48:00.579Z,11.61
2022-10-05T16:53:18.027Z,11.53
2022-10-05T16:58:27.444Z,11.51
2022-10-05T17:03:42.478Z,11.51
2022-10-05T17:08:54.593Z,11.50
2022-10-05T17:14:29.750Z,11.48
2022-10-05T17:19:38.292Z,11.50
2022-10-05T17:25:09.154Z,11.50
2022-10-05T17:31:00.826Z,11.50
2022-10-05T17:36:08.717Z,11.47
2022-10-05T17:41:15.568Z,11.40
2022-10-05T17:46:38.784Z,11.33
2022-10-05T17:52:00.232Z,11.26
2022-10-05T17:57:03.032Z,11.20
2022-10-05T18:02:26.974Z,11.16
2022-10-05T18:07:32.156Z,11.12
2022-10-05T18:12:45.961Z,11.14
2022-10-05T18:17:54.892Z,11.18
2022-10-05T18:23:06.198Z,11.19
2022-10-05T18:28:12.350Z,11.22
2022-10-05T18:33:47.439Z,11.24
2022-10-05T18:38:55.483Z,11.26
2022-10-05T18:43:58.262Z,11.22
2022-10-05T18:49:25.742Z,11.14
2022-10-05T18:54:54.885Z,11.05
2022-10-05T19:00:14.332Z,10.92
2022-10-05T19:05:47.612Z,10.78
2022-10-05T19:10:56.636Z,10.61
2022-10-05T19:16:18.524Z,10.47
2022-10-05T19:21:50.961Z,10.34
2022-10-05T19:27:32.061Z,10.20
2022-10-05T19:32:46.842Z,10.15
2022-10-05T19:38:02.099Z,10.11
2022-10-05T19:43:29.846Z,10.06
2022-10-05T19:48:53.045Z,9.98
2022-10-05T19:54:25.291Z,10.00
2022-10-05T19:59:32.861Z,10.12
2022-10-05T20:04:43.411Z,10.23
2022-10-05T20:09:54.302Z,10.38
2022-10-05T20:15:26.780Z,10.55
2022-10-05T20:20:49.286Z,10.70
2022-10-05T20:26:11.606Z,10.81
2022-10-05T20:31:14.807Z,10.95
2022-10-05T20:36:17.821Z,11.01
2022-10-05T20:41:20.623Z,11.05
2022-10-05T20:46:23.613Z,11.11
2022-10-05T20:51:29.074Z,11.11
2022-10-05T20:56:34.194Z,11.10
2022-10-05T21:01:37.156Z,11.11
2022-10-05T21:07:07.404Z,11.09
2022-10-05T21:12:11.430Z,11.08
2022-10-05T21:17:14.695Z,11.09
2022-10-05T21:22:17.548Z,11.09
2022-10-05T21:27:20.449Z,11.07
2022-10-05T21:32:23.354Z,11.08
2022-10-05T21:37:26.157Z,11.09
2022-10-05T21:42:29.262Z,11.09
2022-10-05T21:47:32.373Z,11.07
2022-10-05T21:52:35.992Z,11.03
2022-10-05T21:57:39.229Z,10.97
2022-10-05T22:02:42.417Z,10.92
2022-10-05T22:07:45.326Z,10.85
2022-10-05T22:12:48.631Z,10.82
2022-10-05T22:17:51.542Z,10.79
2022-10-05T22:22:54.442Z,10.77
2022-10-05T22:27:57.378Z,10.74
2022-10-05T22:33:00.351Z,10.73
2022-10-05T22:38:04.401Z,10.69
2022-10-05T22:43:07.801Z,10.66
2022-10-05T22:48:10.712Z,10.62
2022-10-05T22:53:14.296Z,10.60
2022-10-05T22:58:17.226Z,10.57
2022-10-05T23:03:20.129Z,10.52
2022-10-05T23:08:23.035Z,10.49
2022-10-05T23:13:25.939Z,10.47
2022-10-05T23:18:29.086Z,10.44
2022-10-05T23:23:40.961Z,10.42
2022-10-05T23:28:47.356Z,10.42
2022-10-05T23:33:51.102Z,10.42
2022-10-05T23:38:54.703Z,10.42
2022-10-05T23:43:57.597Z,10.42
2022-10-05T23:49:00.497Z,10.39
2022-10-05T23:54:03.402Z,10.35
2022-10-05T23:59:06.307Z,10.32
